sensor_id;sensor_type;location;lat;lon;timestamp;P1;durP1;ratioP1;P2;durP2;ratioP2
69414;SDS011;56608;43.530;-5.652;2022-10-30T00:00:38;1.95;;;0.80;;
69414;SDS011;56608;43.530;-5.652;2022-10-30T00:01:39;3.85;;;0.70;;
69414;SDS011;56608;43.530;-5.652;2022-10-30T00:02:41;2.60;;;0.70;;
69414;SDS011;56608;43.530;-5.652;2022-10-30T00:03:46;4.80;;;0.83;;
69414;SDS011;56608;43.530;-5.652;2022-10-30T00:04:47;1.98;;;0.90;;
69414;SDS011;56608;43.530;-5.652;2022-10-30T00:05:49;3.00;;;1.00;;
69414;SDS011;56608;43.530;-5.652;2022-10-30T00:06:51;2.55;;;0.80;;
69414;SDS011;56608;43.530;-5.652;2022-10-30T00:07:56;1.65;;;0.93;;
69414;SDS011;56608;43.530;-5.652;2022-10-30T00:08:58;1.80;;;0.70;;
69414;SDS011;56608;43.530;-5.652;2022-10-30T00:10:01;1.55;;;0.70;;
69414;SDS011;56608;43.530;-5.652;2022-10-30T00:12:11;1.50;;;0.50;;
69414;SDS011;56608;43.530;-5.652;2022-10-30T00:13:12;4.30;;;0.70;;
69414;SDS011;56608;43.530;-5.652;2022-10-30T00:14:14;0.60;;;0.40;;
69414;SDS011;56608;43.530;-5.652;2022-10-30T00:15:14;1.97;;;0.40;;
69414;SDS011;56608;43.530;-5.652;2022-10-30T00:16:16;1.55;;;0.60;;
69414;SDS011;56608;43.530;-5.652;2022-10-30T00:17:18;3.10;;;0.70;;
69414;SDS011;56608;43.530;-5.652;2022-10-30T00:18:19;3.78;;;0.65;;
69414;SDS011;56608;43.530;-5.652;2022-10-30T00:19:23;1.05;;;0.45;;
69414;SDS011;56608;43.530;-5.652;2022-10-30T00:20:25;1.23;;;0.73;;
69414;SDS011;56608;43.530;-5.652;2022-10-30T00:21:26;1.25;;;0.50;;
69414;SDS011;56608;43.530;-5.652;2022-10-30T00:22:30;3.45;;;0.60;;
69414;SDS011;56608;43.530;-5.652;2022-10-30T00:23:31;1.70;;;0.40;;
69414;SDS011;56608;43.530;-5.652;2022-10-30T00:24:33;1.30;;;0.50;;
69414;SDS011;56608;43.530;-5.652;2022-10-30T00:25:35;1.35;;;0.40;;
69414;SDS011;56608;43.530;-5.652;2022-10-30T00:26:36;0.80;;;0.60;;
69414;SDS011;56608;43.530;-5.652;2022-10-30T00:27:37;1.50;;;0.50;;
69414;SDS011;56608;43.530;-5.652;2022-10-30T00:28:38;1.95;;;0.60;;
69414;SDS011;56608;43.530;-5.652;2022-10-30T00:29:39;1.00;;;0.60;;
69414;SDS011;56608;43.530;-5.652;2022-10-30T00:30:41;2.30;;;0.60;;
69414;SDS011;56608;43.530;-5.652;2022-10-30T00:31:44;0.80;;;0.50;;
69414;SDS011;56608;43.530;-5.652;2022-10-30T00:32:46;1.30;;;0.60;;
69414;SDS011;56608;43.530;-5.652;2022-10-30T00:33:48;2.20;;;0.40;;
69414;SDS011;56608;43.530;-5.652;2022-10-30T00:34:52;2.40;;;0.60;;
69414;SDS011;56608;43.530;-5.652;2022-10-30T00:35:54;1.15;;;0.40;;
69414;SDS011;56608;43.530;-5.652;2022-10-30T00:36:55;2.22;;;0.55;;
69414;SDS011;56608;43.530;-5.652;2022-10-30T00:37:56;1.00;;;0.50;;
69414;SDS011;56608;43.530;-5.652;2022-10-30T00:39:00;0.70;;;0.40;;
69414;SDS011;56608;43.530;-5.652;2022-10-30T00:40:02;1.90;;;0.70;;
69414;SDS011;56608;43.530;-5.652;2022-10-30T00:41:04;1.05;;;0.40;;
69414;SDS011;56608;43.530;-5.652;2022-10-30T00:42:08;2.12;;;0.60;;
69414;SDS011;56608;43.530;-5.652;2022-10-30T00:45:46;1.55;;;0.60;;
69414;SDS011;56608;43.530;-5.652;2022-10-30T00:46:49;2.30;;;0.50;;
69414;SDS011;56608;43.530;-5.652;2022-10-30T00:47:55;1.35;;;0.75;;
69414;SDS011;56608;43.530;-5.652;2022-10-30T00:49:13;0.85;;;0.60;;
69414;SDS011;56608;43.530;-5.652;2022-10-30T00:50:24;1.95;;;0.55;;
69414;SDS011;56608;43.530;-5.652;2022-10-30T00:51:29;1.20;;;0.52;;
69414;SDS011;56608;43.530;-5.652;2022-10-30T00:52:36;0.90;;;0.45;;
69414;SDS011;56608;43.530;-5.652;2022-10-30T00:53:42;3.35;;;0.60;;
69414;SDS011;56608;43.530;-5.652;2022-10-30T00:54:45;2.35;;;0.65;;
69414;SDS011;56608;43.530;-5.652;2022-10-30T00:55:47;1.23;;;0.65;;
69414;SDS011;56608;43.530;-5.652;2022-10-30T00:56:52;1.25;;;0.45;;
69414;SDS011;56608;43.530;-5.652;2022-10-30T00:57:54;2.85;;;0.60;;
69414;SDS011;56608;43.530;-5.652;2022-10-30T00:59:07;2.45;;;0.80;;
69414;SDS011;56608;43.530;-5.652;2022-10-30T01:00:10;1.15;;;0.70;;
69414;SDS011;56608;43.530;-5.652;2022-10-30T01:01:14;3.35;;;0.60;;
69414;SDS011;56608;43.530;-5.652;2022-10-30T01:02:19;1.10;;;0.50;;
69414;SDS011;56608;43.530;-5.652;2022-10-30T01:03:22;3.45;;;0.70;;
69414;SDS011;56608;43.530;-5.652;2022-10-30T01:04:26;1.27;;;0.47;;
69414;SDS011;56608;43.530;-5.652;2022-10-30T01:05:29;2.10;;;0.80;;
69414;SDS011;56608;43.530;-5.652;2022-10-30T01:06:35;2.95;;;0.60;;
69414;SDS011;56608;43.530;-5.652;2022-10-30T01:07:39;2.80;;;0.70;;
69414;SDS011;56608;43.530;-5.652;2022-10-30T01:08:40;1.85;;;0.50;;
69414;SDS011;56608;43.530;-5.652;2022-10-30T01:09:44;1.70;;;0.60;;
69414;SDS011;56608;43.530;-5.652;2022-10-30T01:10:46;1.05;;;0.45;;
69414;SDS011;56608;43.530;-5.652;2022-10-30T01:11:48;1.62;;;0.50;;
69414;SDS011;56608;43.530;-5.652;2022-10-30T01:12:50;1.20;;;0.37;;
69414;SDS011;56608;43.530;-5.652;2022-10-30T01:13:55;0.65;;;0.40;;
69414;SDS011;56608;43.530;-5.652;2022-10-30T01:15:00;1.85;;;0.50;;
69414;SDS011;56608;43.530;-5.652;2022-10-30T01:23:25;2.00;;;0.50;;
69414;SDS011;56608;43.530;-5.652;2022-10-30T01:24:38;0.57;;;0.40;;
69414;SDS011;56608;43.530;-5.652;2022-10-30T01:27:21;1.10;;;0.50;;
69414;SDS011;56608;43.530;-5.652;2022-10-30T01:28:54;1.95;;;0.50;;
69414;SDS011;56608;43.530;-5.652;2022-10-30T01:36:06;1.30;;;0.50;;
69414;SDS011;56608;43.530;-5.652;2022-10-30T01:37:41;1.85;;;0.50;;
69414;SDS011;56608;43.530;-5.652;2022-10-30T01:39:09;1.15;;;0.50;;
69414;SDS011;56608;43.530;-5.652;2022-10-30T01:40:28;1.10;;;0.65;;
69414;SDS011;56608;43.530;-5.652;2022-10-30T01:41:29;0.57;;;0.47;;
69414;SDS011;56608;43.530;-5.652;2022-10-30T01:43:58;0.80;;;0.40;;
69414;SDS011;56608;43.530;-5.652;2022-10-30T01:45:03;1.65;;;0.50;;
69414;SDS011;56608;43.530;-5.652;2022-10-30T01:49:11;1.65;;;0.60;;
69414;SDS011;56608;43.530;-5.652;2022-10-30T01:52:41;1.10;;;0.70;;
69414;SDS011;56608;43.530;-5.652;2022-10-30T01:58:30;2.50;;;0.70;;
69414;SDS011;56608;43.530;-5.652;2022-10-30T01:59:38;0.90;;;0.60;;
69414;SDS011;56608;43.530;-5.652;2022-10-30T02:00:42;1.80;;;0.60;;
69414;SDS011;56608;43.530;-5.652;2022-10-30T02:01:48;2.15;;;0.70;;
69414;SDS011;56608;43.530;-5.652;2022-10-30T02:02:50;2.50;;;0.70;;
69414;SDS011;56608;43.530;-5.652;2022-10-30T02:03:52;1.92;;;0.93;;
69414;SDS011;56608;43.530;-5.652;2022-10-30T02:04:53;1.58;;;0.60;;
69414;SDS011;56608;43.530;-5.652;2022-10-30T02:06:54;1.70;;;0.80;;
69414;SDS011;56608;43.530;-5.652;2022-10-30T02:07:56;2.05;;;1.10;;
69414;SDS011;56608;43.530;-5.652;2022-10-30T02:08:58;3.30;;;1.48;;
69414;SDS011;56608;43.530;-5.652;2022-10-30T02:09:59;3.47;;;1.48;;
69414;SDS011;56608;43.530;-5.652;2022-10-30T02:11:00;3.03;;;1.50;;
69414;SDS011;56608;43.530;-5.652;2022-10-30T02:12:02;2.00;;;1.25;;
69414;SDS011;56608;43.530;-5.652;2022-10-30T02:14:06;2.33;;;1.50;;
69414;SDS011;56608;43.530;-5.652;2022-10-30T02:15:09;2.00;;;1.25;;
69414;SDS011;56608;43.530;-5.652;2022-10-30T02:16:11;3.65;;;1.50;;
69414;SDS011;56608;43.530;-5.652;2022-10-30T02:17:13;3.85;;;1.83;;
69414;SDS011;56608;43.530;-5.652;2022-10-30T02:18:14;2.75;;;1.52;;
69414;SDS011;56608;43.530;-5.652;2022-10-30T02:19:16;2.80;;;1.50;;
69414;SDS011;56608;43.530;-5.652;2022-10-30T02:20:20;3.42;;;1.85;;
69414;SDS011;56608;43.530;-5.652;2022-10-30T02:21:22;2.65;;;1.60;;
69414;SDS011;56608;43.530;-5.652;2022-10-30T02:22:24;2.30;;;1.60;;
69414;SDS011;56608;43.530;-5.652;2022-10-30T02:24:27;2.50;;;1.70;;
69414;SDS011;56608;43.530;-5.652;2022-10-30T02:25:29;2.70;;;1.60;;
69414;SDS011;56608;43.530;-5.652;2022-10-30T02:26:33;3.45;;;1.60;;
69414;SDS011;56608;43.530;-5.652;2022-10-30T02:27:34;2.58;;;1.67;;
69414;SDS011;56608;43.530;-5.652;2022-10-30T02:28:36;4.75;;;1.80;;
69414;SDS011;56608;43.530;-5.652;2022-10-30T02:29:36;4.70;;;1.80;;
69414;SDS011;56608;43.530;-5.652;2022-10-30T02:30:39;2.15;;;1.40;;
69414;SDS011;56608;43.530;-5.652;2022-10-30T02:31:43;6.10;;;2.00;;
69414;SDS011;56608;43.530;-5.652;2022-10-30T02:32:45;3.75;;;1.75;;
69414;SDS011;56608;43.530;-5.652;2022-10-30T02:33:47;3.35;;;1.98;;
69414;SDS011;56608;43.530;-5.652;2022-10-30T02:34:51;7.00;;;1.90;;
69414;SDS011;56608;43.530;-5.652;2022-10-30T02:35:51;3.20;;;1.90;;
69414;SDS011;56608;43.530;-5.652;2022-10-30T02:36:53;3.65;;;1.75;;
69414;SDS011;56608;43.530;-5.652;2022-10-30T02:37:53;3.00;;;1.75;;
69414;SDS011;56608;43.530;-5.652;2022-10-30T02:38:55;2.55;;;1.70;;
69414;SDS011;56608;43.530;-5.652;2022-10-30T02:40:00;5.85;;;2.00;;
69414;SDS011;56608;43.530;-5.652;2022-10-30T02:41:05;3.10;;;1.80;;
69414;SDS011;56608;43.530;-5.652;2022-10-30T02:42:07;4.57;;;1.80;;
69414;SDS011;56608;43.530;-5.652;2022-10-30T02:43:11;4.07;;;1.77;;
69414;SDS011;56608;43.530;-5.652;2022-10-30T02:44:15;2.75;;;1.60;;
69414;SDS011;56608;43.530;-5.652;2022-10-30T02:45:15;3.75;;;1.50;;
69414;SDS011;56608;43.530;-5.652;2022-10-30T02:46:17;3.25;;;1.60;;
69414;SDS011;56608;43.530;-5.652;2022-10-30T02:47:19;3.90;;;1.60;;
69414;SDS011;56608;43.530;-5.652;2022-10-30T02:48:20;2.58;;;1.70;;
69414;SDS011;56608;43.530;-5.652;2022-10-30T02:49:22;4.30;;;1.50;;
69414;SDS011;56608;43.530;-5.652;2022-10-30T02:50:25;3.25;;;1.40;;
69414;SDS011;56608;43.530;-5.652;2022-10-30T02:51:27;2.95;;;1.65;;
69414;SDS011;56608;43.530;-5.652;2022-10-30T02:52:31;3.00;;;1.43;;
69414;SDS011;56608;43.530;-5.652;2022-10-30T02:53:33;2.92;;;1.55;;
69414;SDS011;56608;43.530;-5.652;2022-10-30T02:54:35;3.10;;;1.60;;
69414;SDS011;56608;43.530;-5.652;2022-10-30T02:56:39;2.30;;;1.70;;
69414;SDS011;56608;43.530;-5.652;2022-10-30T02:57:40;4.45;;;2.00;;
69414;SDS011;56608;43.530;-5.652;2022-10-30T02:58:44;4.65;;;1.90;;
69414;SDS011;56608;43.530;-5.652;2022-10-30T02:59:45;4.00;;;1.62;;
69414;SDS011;56608;43.530;-5.652;2022-10-30T03:00:47;5.43;;;1.70;;
69414;SDS011;56608;43.530;-5.652;2022-10-30T03:01:47;2.05;;;1.40;;
69414;SDS011;56608;43.530;-5.652;2022-10-30T03:02:53;3.40;;;1.80;;
69414;SDS011;56608;43.530;-5.652;2022-10-30T03:03:55;3.50;;;1.60;;
69414;SDS011;56608;43.530;-5.652;2022-10-30T03:04:56;5.40;;;1.85;;
69414;SDS011;56608;43.530;-5.652;2022-10-30T03:06:05;3.55;;;1.45;;
69414;SDS011;56608;43.530;-5.652;2022-10-30T03:07:07;3.00;;;1.30;;
69414;SDS011;56608;43.530;-5.652;2022-10-30T03:08:09;4.00;;;1.70;;
69414;SDS011;56608;43.530;-5.652;2022-10-30T03:09:10;3.17;;;1.58;;
69414;SDS011;56608;43.530;-5.652;2022-10-30T03:10:11;3.72;;;1.77;;
69414;SDS011;56608;43.530;-5.652;2022-10-30T03:11:15;5.95;;;1.90;;
69414;SDS011;56608;43.530;-5.652;2022-10-30T03:12:18;3.85;;;1.70;;
69414;SDS011;56608;43.530;-5.652;2022-10-30T03:13:19;3.90;;;1.33;;
69414;SDS011;56608;43.530;-5.652;2022-10-30T03:14:21;3.55;;;1.50;;
69414;SDS011;56608;43.530;-5.652;2022-10-30T03:15:22;3.00;;;1.30;;
69414;SDS011;56608;43.530;-5.652;2022-10-30T03:16:24;3.78;;;1.50;;
69414;SDS011;56608;43.530;-5.652;2022-10-30T03:17:29;3.30;;;1.45;;
69414;SDS011;56608;43.530;-5.652;2022-10-30T03:18:33;2.33;;;1.37;;
69414;SDS011;56608;43.530;-5.652;2022-10-30T03:19:34;3.45;;;1.50;;
69414;SDS011;56608;43.530;-5.652;2022-10-30T03:20:36;6.50;;;1.90;;
69414;SDS011;56608;43.530;-5.652;2022-10-30T03:21:37;2.40;;;1.60;;
69414;SDS011;56608;43.530;-5.652;2022-10-30T03:22:39;3.15;;;1.33;;
69414;SDS011;56608;43.530;-5.652;2022-10-30T03:23:40;3.40;;;1.60;;
69414;SDS011;56608;43.530;-5.652;2022-10-30T03:24:42;2.55;;;1.40;;
69414;SDS011;56608;43.530;-5.652;2022-10-30T03:25:43;3.28;;;1.35;;
69414;SDS011;56608;43.530;-5.652;2022-10-30T03:26:45;2.97;;;1.50;;
69414;SDS011;56608;43.530;-5.652;2022-10-30T03:27:48;2.90;;;1.40;;
69414;SDS011;56608;43.530;-5.652;2022-10-30T03:28:48;2.40;;;1.20;;
69414;SDS011;56608;43.530;-5.652;2022-10-30T03:29:50;1.60;;;1.40;;
69414;SDS011;56608;43.530;-5.652;2022-10-30T03:30:56;3.80;;;1.60;;
69414;SDS011;56608;43.530;-5.652;2022-10-30T03:32:01;2.60;;;1.40;;
69414;SDS011;56608;43.530;-5.652;2022-10-30T03:33:03;2.72;;;1.30;;
69414;SDS011;56608;43.530;-5.652;2022-10-30T03:34:04;3.70;;;1.17;;
69414;SDS011;56608;43.530;-5.652;2022-10-30T03:35:06;4.45;;;1.45;;
69414;SDS011;56608;43.530;-5.652;2022-10-30T03:36:08;2.28;;;1.30;;
69414;SDS011;56608;43.530;-5.652;2022-10-30T03:37:12;2.85;;;1.30;;
69414;SDS011;56608;43.530;-5.652;2022-10-30T03:38:13;3.00;;;1.40;;
69414;SDS011;56608;43.530;-5.652;2022-10-30T03:39:15;2.12;;;1.10;;
69414;SDS011;56608;43.530;-5.652;2022-10-30T03:40:15;3.80;;;1.70;;
69414;SDS011;56608;43.530;-5.652;2022-10-30T03:41:17;3.00;;;1.30;;
69414;SDS011;56608;43.530;-5.652;2022-10-30T03:42:17;4.20;;;1.70;;
69414;SDS011;56608;43.530;-5.652;2022-10-30T03:43:20;2.95;;;1.40;;
69414;SDS011;56608;43.530;-5.652;2022-10-30T03:44:21;1.60;;;1.20;;
69414;SDS011;56608;43.530;-5.652;2022-10-30T03:45:23;2.33;;;1.10;;
69414;SDS011;56608;43.530;-5.652;2022-10-30T03:46:26;2.55;;;1.40;;
69414;SDS011;56608;43.530;-5.652;2022-10-30T03:47:28;3.12;;;1.50;;
69414;SDS011;56608;43.530;-5.652;2022-10-30T03:48:29;2.40;;;1.00;;
69414;SDS011;56608;43.530;-5.652;2022-10-30T03:49:30;2.30;;;1.20;;
69414;SDS011;56608;43.530;-5.652;2022-10-30T03:50:34;2.50;;;1.20;;
69414;SDS011;56608;43.530;-5.652;2022-10-30T03:51:35;3.40;;;1.08;;
69414;SDS011;56608;43.530;-5.652;2022-10-30T03:52:36;1.40;;;1.00;;
69414;SDS011;56608;43.530;-5.652;2022-10-30T03:53:38;1.92;;;1.00;;
69414;SDS011;56608;43.530;-5.652;2022-10-30T03:54:41;4.25;;;1.70;;
69414;SDS011;56608;43.530;-5.652;2022-10-30T03:55:43;1.52;;;1.08;;
69414;SDS011;56608;43.530;-5.652;2022-10-30T03:56:44;2.75;;;1.20;;
69414;SDS011;56608;43.530;-5.652;2022-10-30T03:58:47;2.80;;;1.10;;
69414;SDS011;56608;43.530;-5.652;2022-10-30T03:59:50;1.90;;;1.30;;
69414;SDS011;56608;43.530;-5.652;2022-10-30T04:00:52;3.33;;;1.15;;
69414;SDS011;56608;43.530;-5.652;2022-10-30T04:02:54;3.60;;;1.25;;
69414;SDS011;56608;43.530;-5.652;2022-10-30T04:03:56;2.83;;;1.30;;
69414;SDS011;56608;43.530;-5.652;2022-10-30T04:04:57;2.40;;;1.20;;
69414;SDS011;56608;43.530;-5.652;2022-10-30T04:06:01;4.35;;;1.40;;
69414;SDS011;56608;43.530;-5.652;2022-10-30T04:07:02;6.18;;;1.77;;
69414;SDS011;56608;43.530;-5.652;2022-10-30T04:08:05;4.60;;;1.37;;
69414;SDS011;56608;43.530;-5.652;2022-10-30T04:09:10;2.10;;;1.40;;
69414;SDS011;56608;43.530;-5.652;2022-10-30T04:10:14;3.05;;;1.30;;
69414;SDS011;56608;43.530;-5.652;2022-10-30T04:11:15;2.40;;;1.40;;
69414;SDS011;56608;43.530;-5.652;2022-10-30T04:12:15;1.60;;;1.10;;
69414;SDS011;56608;43.530;-5.652;2022-10-30T04:13:17;2.30;;;1.25;;
69414;SDS011;56608;43.530;-5.652;2022-10-30T04:14:20;1.95;;;1.50;;
69414;SDS011;56608;43.530;-5.652;2022-10-30T04:15:21;2.45;;;1.62;;
69414;SDS011;56608;43.530;-5.652;2022-10-30T04:16:23;2.43;;;1.33;;
69414;SDS011;56608;43.530;-5.652;2022-10-30T04:17:24;4.57;;;1.23;;
69414;SDS011;56608;43.530;-5.652;2022-10-30T04:18:25;4.28;;;1.30;;
69414;SDS011;56608;43.530;-5.652;2022-10-30T04:19:27;2.17;;;1.20;;
69414;SDS011;56608;43.530;-5.652;2022-10-30T04:20:29;3.45;;;1.40;;
69414;SDS011;56608;43.530;-5.652;2022-10-30T04:21:31;3.75;;;1.70;;
69414;SDS011;56608;43.530;-5.652;2022-10-30T04:22:32;3.55;;;1.27;;
69414;SDS011;56608;43.530;-5.652;2022-10-30T04:23:35;3.40;;;1.30;;
69414;SDS011;56608;43.530;-5.652;2022-10-30T04:24:37;3.30;;;1.40;;
69414;SDS011;56608;43.530;-5.652;2022-10-30T04:25:40;2.43;;;1.50;;
69414;SDS011;56608;43.530;-5.652;2022-10-30T04:27:43;1.42;;;1.12;;
69414;SDS011;56608;43.530;-5.652;2022-10-30T04:29:47;1.45;;;1.20;;
69414;SDS011;56608;43.530;-5.652;2022-10-30T04:30:48;2.67;;;1.42;;
69414;SDS011;56608;43.530;-5.652;2022-10-30T04:31:50;1.50;;;1.20;;
69414;SDS011;56608;43.530;-5.652;2022-10-30T04:32:54;2.80;;;1.30;;
69414;SDS011;56608;43.530;-5.652;2022-10-30T04:33:56;1.90;;;1.25;;
69414;SDS011;56608;43.530;-5.652;2022-10-30T04:34:57;2.23;;;1.60;;
69414;SDS011;56608;43.530;-5.652;2022-10-30T04:35:59;2.50;;;1.30;;
69414;SDS011;56608;43.530;-5.652;2022-10-30T04:37:00;2.28;;;1.45;;
69414;SDS011;56608;43.530;-5.652;2022-10-30T04:38:06;2.75;;;1.70;;
69414;SDS011;56608;43.530;-5.652;2022-10-30T04:39:10;2.20;;;1.43;;
69414;SDS011;56608;43.530;-5.652;2022-10-30T04:40:11;4.47;;;1.60;;
69414;SDS011;56608;43.530;-5.652;2022-10-30T04:41:12;2.60;;;1.40;;
69414;SDS011;56608;43.530;-5.652;2022-10-30T04:42:15;2.85;;;1.40;;
69414;SDS011;56608;43.530;-5.652;2022-10-30T04:43:17;3.65;;;1.42;;
69414;SDS011;56608;43.530;-5.652;2022-10-30T04:44:18;4.70;;;1.30;;
69414;SDS011;56608;43.530;-5.652;2022-10-30T04:45:19;2.00;;;1.50;;
69414;SDS011;56608;43.530;-5.652;2022-10-30T04:46:21;2.05;;;1.50;;
69414;SDS011;56608;43.530;-5.652;2022-10-30T04:47:22;5.70;;;1.62;;
69414;SDS011;56608;43.530;-5.652;2022-10-30T04:48:23;2.05;;;1.70;;
69414;SDS011;56608;43.530;-5.652;2022-10-30T04:49:25;2.05;;;1.40;;
69414;SDS011;56608;43.530;-5.652;2022-10-30T04:50:25;1.57;;;1.37;;
69414;SDS011;56608;43.530;-5.652;2022-10-30T04:51:29;2.65;;;1.60;;
69414;SDS011;56608;43.530;-5.652;2022-10-30T04:52:32;4.70;;;1.70;;
69414;SDS011;56608;43.530;-5.652;2022-10-30T04:53:34;2.53;;;1.60;;
69414;SDS011;56608;43.530;-5.652;2022-10-30T04:54:35;3.58;;;1.45;;
69414;SDS011;56608;43.530;-5.652;2022-10-30T04:55:37;5.07;;;1.35;;
69414;SDS011;56608;43.530;-5.652;2022-10-30T04:56:38;2.87;;;1.27;;
69414;SDS011;56608;43.530;-5.652;2022-10-30T04:57:39;2.33;;;1.60;;
69414;SDS011;56608;43.530;-5.652;2022-10-30T04:58:41;2.90;;;1.70;;
69414;SDS011;56608;43.530;-5.652;2022-10-30T04:59:44;3.60;;;1.90;;
69414;SDS011;56608;43.530;-5.652;2022-10-30T05:00:46;3.87;;;1.60;;
69414;SDS011;56608;43.530;-5.652;2022-10-30T05:01:47;5.05;;;1.75;;
69414;SDS011;56608;43.530;-5.652;2022-10-30T05:02:47;2.17;;;1.70;;
69414;SDS011;56608;43.530;-5.652;2022-10-30T05:03:49;1.60;;;1.45;;
69414;SDS011;56608;43.530;-5.652;2022-10-30T05:04:53;2.85;;;1.55;;
69414;SDS011;56608;43.530;-5.652;2022-10-30T05:05:56;4.70;;;1.50;;
69414;SDS011;56608;43.530;-5.652;2022-10-30T05:06:59;2.05;;;1.40;;
69414;SDS011;56608;43.530;-5.652;2022-10-30T05:08:02;6.80;;;1.70;;
69414;SDS011;56608;43.530;-5.652;2022-10-30T05:09:03;2.13;;;1.40;;
69414;SDS011;56608;43.530;-5.652;2022-10-30T05:10:05;2.70;;;1.60;;
69414;SDS011;56608;43.530;-5.652;2022-10-30T05:11:06;2.55;;;1.30;;
69414;SDS011;56608;43.530;-5.652;2022-10-30T05:12:09;2.97;;;1.58;;
69414;SDS011;56608;43.530;-5.652;2022-10-30T05:13:11;2.00;;;1.40;;
69414;SDS011;56608;43.530;-5.652;2022-10-30T05:14:14;2.10;;;1.60;;
69414;SDS011;56608;43.530;-5.652;2022-10-30T05:15:15;1.50;;;1.40;;
69414;SDS011;56608;43.530;-5.652;2022-10-30T05:16:17;4.37;;;2.12;;
69414;SDS011;56608;43.530;-5.652;2022-10-30T05:17:18;2.45;;;1.40;;
69414;SDS011;56608;43.530;-5.652;2022-10-30T05:18:22;2.85;;;1.95;;
69414;SDS011;56608;43.530;-5.652;2022-10-30T05:19:22;2.47;;;1.60;;
69414;SDS011;56608;43.530;-5.652;2022-10-30T05:20:24;2.45;;;1.40;;
69414;SDS011;56608;43.530;-5.652;2022-10-30T05:21:25;1.98;;;1.30;;
69414;SDS011;56608;43.530;-5.652;2022-10-30T05:22:27;3.83;;;1.33;;
69414;SDS011;56608;43.530;-5.652;2022-10-30T05:23:27;2.20;;;1.50;;
69414;SDS011;56608;43.530;-5.652;2022-10-30T05:24:29;3.60;;;1.40;;
69414;SDS011;56608;43.530;-5.652;2022-10-30T05:25:31;4.50;;;1.60;;
69414;SDS011;56608;43.530;-5.652;2022-10-30T05:26:34;1.57;;;1.43;;
69414;SDS011;56608;43.530;-5.652;2022-10-30T05:27:36;3.87;;;1.70;;
69414;SDS011;56608;43.530;-5.652;2022-10-30T05:28:37;2.95;;;1.55;;
69414;SDS011;56608;43.530;-5.652;2022-10-30T05:29:39;4.40;;;1.60;;
69414;SDS011;56608;43.530;-5.652;2022-10-30T05:30:41;2.65;;;1.65;;
69414;SDS011;56608;43.530;-5.652;2022-10-30T05:32:43;2.13;;;1.47;;
69414;SDS011;56608;43.530;-5.652;2022-10-30T05:33:45;2.45;;;1.30;;
69414;SDS011;56608;43.530;-5.652;2022-10-30T05:34:45;4.10;;;1.50;;
69414;SDS011;56608;43.530;-5.652;2022-10-30T05:35:49;2.50;;;1.70;;
69414;SDS011;56608;43.530;-5.652;2022-10-30T05:36:50;5.85;;;2.17;;
69414;SDS011;56608;43.530;-5.652;2022-10-30T05:37:50;4.00;;;2.30;;
69414;SDS011;56608;43.530;-5.652;2022-10-30T05:38:52;5.70;;;2.05;;
69414;SDS011;56608;43.530;-5.652;2022-10-30T05:39:54;2.75;;;1.67;;
69414;SDS011;56608;43.530;-5.652;2022-10-30T05:40:55;2.97;;;1.67;;
69414;SDS011;56608;43.530;-5.652;2022-10-30T05:41:57;2.95;;;1.55;;
69414;SDS011;56608;43.530;-5.652;2022-10-30T05:42:58;3.35;;;1.70;;
69414;SDS011;56608;43.530;-5.652;2022-10-30T05:44:00;2.70;;;1.90;;
69414;SDS011;56608;43.530;-5.652;2022-10-30T05:45:01;3.47;;;1.70;;
69414;SDS011;56608;43.530;-5.652;2022-10-30T05:46:03;2.70;;;1.85;;
69414;SDS011;56608;43.530;-5.652;2022-10-30T05:47:04;3.75;;;1.73;;
69414;SDS011;56608;43.530;-5.652;2022-10-30T05:48:08;3.80;;;1.55;;
69414;SDS011;56608;43.530;-5.652;2022-10-30T05:49:09;1.90;;;1.65;;
69414;SDS011;56608;43.530;-5.652;2022-10-30T05:50:11;2.65;;;1.80;;
69414;SDS011;56608;43.530;-5.652;2022-10-30T05:51:14;5.00;;;1.90;;
69414;SDS011;56608;43.530;-5.652;2022-10-30T05:52:15;4.07;;;1.60;;
69414;SDS011;56608;43.530;-5.652;2022-10-30T05:53:17;3.03;;;1.70;;
69414;SDS011;56608;43.530;-5.652;2022-10-30T05:54:20;3.05;;;1.50;;
69414;SDS011;56608;43.530;-5.652;2022-10-30T05:55:22;2.17;;;1.40;;
69414;SDS011;56608;43.530;-5.652;2022-10-30T05:56:25;3.10;;;1.50;;
69414;SDS011;56608;43.530;-5.652;2022-10-30T05:57:27;3.15;;;1.60;;
69414;SDS011;56608;43.530;-5.652;2022-10-30T05:58:29;4.45;;;2.20;;
69414;SDS011;56608;43.530;-5.652;2022-10-30T05:59:30;4.60;;;2.10;;
69414;SDS011;56608;43.530;-5.652;2022-10-30T06:00:33;4.65;;;2.40;;
69414;SDS011;56608;43.530;-5.652;2022-10-30T06:01:35;7.25;;;2.90;;
69414;SDS011;56608;43.530;-5.652;2022-10-30T06:02:37;6.55;;;2.85;;
69414;SDS011;56608;43.530;-5.652;2022-10-30T06:03:37;3.40;;;2.60;;
69414;SDS011;56608;43.530;-5.652;2022-10-30T06:04:39;8.50;;;3.45;;
69414;SDS011;56608;43.530;-5.652;2022-10-30T06:05:42;5.97;;;2.85;;
69414;SDS011;56608;43.530;-5.652;2022-10-30T06:06:45;10.80;;;3.05;;
69414;SDS011;56608;43.530;-5.652;2022-10-30T06:07:45;4.53;;;3.00;;
69414;SDS011;56608;43.530;-5.652;2022-10-30T06:08:47;5.95;;;3.00;;
69414;SDS011;56608;43.530;-5.652;2022-10-30T06:09:49;3.92;;;2.87;;
69414;SDS011;56608;43.530;-5.652;2022-10-30T06:10:52;3.15;;;2.70;;
69414;SDS011;56608;43.530;-5.652;2022-10-30T06:11:54;4.95;;;3.10;;
69414;SDS011;56608;43.530;-5.652;2022-10-30T06:12:56;4.53;;;3.08;;
69414;SDS011;56608;43.530;-5.652;2022-10-30T06:13:59;4.63;;;2.47;;
69414;SDS011;56608;43.530;-5.652;2022-10-30T06:15:03;3.60;;;2.20;;
69414;SDS011;56608;43.530;-5.652;2022-10-30T06:17:06;2.87;;;2.33;;
69414;SDS011;56608;43.530;-5.652;2022-10-30T06:18:07;4.37;;;2.40;;
69414;SDS011;56608;43.530;-5.652;2022-10-30T06:19:09;4.05;;;2.65;;
69414;SDS011;56608;43.530;-5.652;2022-10-30T06:20:10;3.12;;;2.35;;
69414;SDS011;56608;43.530;-5.652;2022-10-30T06:21:13;3.10;;;2.20;;
69414;SDS011;56608;43.530;-5.652;2022-10-30T06:22:17;3.60;;;2.50;;
69414;SDS011;56608;43.530;-5.652;2022-10-30T06:23:18;7.20;;;2.40;;
69414;SDS011;56608;43.530;-5.652;2022-10-30T06:24:20;4.00;;;2.80;;
69414;SDS011;56608;43.530;-5.652;2022-10-30T06:25:21;4.05;;;2.30;;
69414;SDS011;56608;43.530;-5.652;2022-10-30T06:26:23;4.10;;;2.30;;
69414;SDS011;56608;43.530;-5.652;2022-10-30T06:27:24;3.85;;;2.10;;
69414;SDS011;56608;43.530;-5.652;2022-10-30T06:28:26;2.58;;;1.98;;
69414;SDS011;56608;43.530;-5.652;2022-10-30T06:29:26;2.10;;;1.90;;
69414;SDS011;56608;43.530;-5.652;2022-10-30T06:30:28;4.73;;;2.17;;
69414;SDS011;56608;43.530;-5.652;2022-10-30T06:31:32;3.65;;;2.05;;
69414;SDS011;56608;43.530;-5.652;2022-10-30T06:32:33;5.05;;;2.35;;
69414;SDS011;56608;43.530;-5.652;2022-10-30T06:33:34;3.67;;;2.30;;
69414;SDS011;56608;43.530;-5.652;2022-10-30T06:34:36;3.85;;;2.00;;
69414;SDS011;56608;43.530;-5.652;2022-10-30T06:35:37;3.55;;;1.90;;
69414;SDS011;56608;43.530;-5.652;2022-10-30T06:36:38;5.25;;;1.95;;
69414;SDS011;56608;43.530;-5.652;2022-10-30T06:37:46;4.10;;;2.20;;
69414;SDS011;56608;43.530;-5.652;2022-10-30T06:38:50;2.33;;;1.80;;
69414;SDS011;56608;43.530;-5.652;2022-10-30T06:39:51;2.92;;;2.05;;
69414;SDS011;56608;43.530;-5.652;2022-10-30T06:40:52;4.35;;;3.35;;
69414;SDS011;56608;43.530;-5.652;2022-10-30T06:41:53;5.20;;;3.10;;
69414;SDS011;56608;43.530;-5.652;2022-10-30T06:42:55;3.67;;;2.50;;
69414;SDS011;56608;43.530;-5.652;2022-10-30T06:43:57;3.62;;;2.45;;
69414;SDS011;56608;43.530;-5.652;2022-10-30T06:44:58;4.45;;;2.20;;
69414;SDS011;56608;43.530;-5.652;2022-10-30T06:46:04;3.00;;;1.85;;
69414;SDS011;56608;43.530;-5.652;2022-10-30T06:48:07;3.17;;;2.25;;
69414;SDS011;56608;43.530;-5.652;2022-10-30T06:49:09;3.90;;;2.40;;
69414;SDS011;56608;43.530;-5.652;2022-10-30T06:50:12;4.60;;;2.67;;
69414;SDS011;56608;43.530;-5.652;2022-10-30T06:51:15;4.50;;;2.10;;
69414;SDS011;56608;43.530;-5.652;2022-10-30T06:53:22;3.20;;;2.40;;
69414;SDS011;56608;43.530;-5.652;2022-10-30T06:54:25;3.50;;;2.90;;